sensor_id;sensor_type;location;lat;lon;timestamp;temperature;humidity
54126;DHT22;40360;52.992;6.796;2023-09-07T00:01:18;18.30;99.90
54126;DHT22;40360;52.992;6.796;2023-09-07T00:03:44;18.30;99.90
54126;DHT22;40360;52.992;6.796;2023-09-07T00:06:10;18.20;99.90
54126;DHT22;40360;52.992;6.796;2023-09-07T00:08:36;18.20;99.90
54126;DHT22;40360;52.992;6.796;2023-09-07T00:11:06;18.20;99.90
54126;DHT22;40360;52.992;6.796;2023-09-07T00:13:32;18.10;99.90
54126;DHT22;40360;52.992;6.796;2023-09-07T00:15:59;18.10;99.90
54126;DHT22;40360;52.992;6.796;2023-09-07T00:18:26;18.00;99.90
54126;DHT22;40360;52.992;6.796;2023-09-07T00:20:51;18.00;99.90
54126;DHT22;40360;52.992;6.796;2023-09-07T00:23:17;17.90;99.90
54126;DHT22;40360;52.992;6.796;2023-09-07T00:25:43;17.90;99.90
54126;DHT22;40360;52.992;6.796;2023-09-07T00:28:08;17.80;99.90
54126;DHT22;40360;52.992;6.796;2023-09-07T00:30:34;17.80;99.90
54126;DHT22;40360;52.992;6.796;2023-09-07T00:32:59;17.80;99.90
54126;DHT22;40360;52.992;6.796;2023-09-07T00:35:25;17.80;99.90
54126;DHT22;40360;52.992;6.796;2023-09-07T00:37:51;17.70;99.90
54126;DHT22;40360;52.992;6.796;2023-09-07T00:40:16;17.70;99.90
54126;DHT22;40360;52.992;6.796;2023-09-07T00:42:42;17.70;99.90
54126;DHT22;40360;52.992;6.796;2023-09-07T00:45:08;17.70;99.90
54126;DHT22;40360;52.992;6.796;2023-09-07T00:47:34;17.60;99.90
54126;DHT22;40360;52.992;6.796;2023-09-07T00:50:04;17.60;99.90
54126;DHT22;40360;52.992;6.796;2023-09-07T00:52:30;17.60;99.90
54126;DHT22;40360;52.992;6.796;2023-09-07T00:54:56;17.60;99.90
54126;DHT22;40360;52.992;6.796;2023-09-07T00:57:22;17.60;99.90
54126;DHT22;40360;52.992;6.796;2023-09-07T00:59:48;17.40;99.90
54126;DHT22;40360;52.992;6.796;2023-09-07T01:02:13;17.50;99.90
54126;DHT22;40360;52.992;6.796;2023-09-07T01:04:39;17.50;99.90
54126;DHT22;40360;52.992;6.796;2023-09-07T01:07:09;17.50;99.90
54126;DHT22;40360;52.992;6.796;2023-09-07T01:09:40;17.50;99.90
54126;DHT22;40360;52.992;6.796;2023-09-07T01:12:07;17.50;99.90
54126;DHT22;40360;52.992;6.796;2023-09-07T01:14:36;17.40;99.90
54126;DHT22;40360;52.992;6.796;2023-09-07T01:17:03;17.40;99.90
54126;DHT22;40360;52.992;6.796;2023-09-07T01:19:30;17.40;99.90
54126;DHT22;40360;52.992;6.796;2023-09-07T01:21:56;17.30;99.90
54126;DHT22;40360;52.992;6.796;2023-09-07T01:24:22;17.30;99.90
54126;DHT22;40360;52.992;6.796;2023-09-07T01:26:49;17.20;99.90
54126;DHT22;40360;52.992;6.796;2023-09-07T01:29:15;17.20;99.90
54126;DHT22;40360;52.992;6.796;2023-09-07T01:31:42;17.20;99.90
54126;DHT22;40360;52.992;6.796;2023-09-07T01:34:08;17.20;99.90
54126;DHT22;40360;52.992;6.796;2023-09-07T01:36:34;17.20;99.90
54126;DHT22;40360;52.992;6.796;2023-09-07T01:39:00;17.10;99.90
54126;DHT22;40360;52.992;6.796;2023-09-07T01:41:26;17.10;99.90
54126;DHT22;40360;52.992;6.796;2023-09-07T01:43:52;17.30;99.90
54126;DHT22;40360;52.992;6.796;2023-09-07T01:46:18;17.10;99.90
54126;DHT22;40360;52.992;6.796;2023-09-07T01:48:43;17.10;99.90
54126;DHT22;40360;52.992;6.796;2023-09-07T01:51:09;17.10;99.90
54126;DHT22;40360;52.992;6.796;2023-09-07T01:53:34;17.00;99.90
54126;DHT22;40360;52.992;6.796;2023-09-07T01:56:00;17.10;99.90
54126;DHT22;40360;52.992;6.796;2023-09-07T01:58:26;17.00;99.90
54126;DHT22;40360;52.992;6.796;2023-09-07T02:00:58;17.00;99.90
54126;DHT22;40360;52.992;6.796;2023-09-07T02:03:24;17.00;99.90
54126;DHT22;40360;52.992;6.796;2023-09-07T02:05:52;16.90;99.90
54126;DHT22;40360;52.992;6.796;2023-09-07T02:08:18;16.90;99.90
54126;DHT22;40360;52.992;6.796;2023-09-07T02:10:44;16.90;99.90
54126;DHT22;40360;52.992;6.796;2023-09-07T02:13:10;16.90;99.90
54126;DHT22;40360;52.992;6.796;2023-09-07T02:15:37;16.90;99.90
54126;DHT22;40360;52.992;6.796;2023-09-07T02:18:04;16.80;99.90
54126;DHT22;40360;52.992;6.796;2023-09-07T02:20:31;16.90;99.90
54126;DHT22;40360;52.992;6.796;2023-09-07T02:22:57;16.90;99.90
54126;DHT22;40360;52.992;6.796;2023-09-07T02:25:23;16.90;99.90
54126;DHT22;40360;52.992;6.796;2023-09-07T02:27:48;16.80;99.90
54126;DHT22;40360;52.992;6.796;2023-09-07T02:30:14;16.80;99.90
54126;DHT22;40360;52.992;6.796;2023-09-07T02:32:42;16.80;99.90
54126;DHT22;40360;52.992;6.796;2023-09-07T02:35:08;16.80;99.90
54126;DHT22;40360;52.992;6.796;2023-09-07T02:37:35;16.70;99.90
54126;DHT22;40360;52.992;6.796;2023-09-07T02:40:01;16.70;99.90
54126;DHT22;40360;52.992;6.796;2023-09-07T02:42:27;16.70;99.90
54126;DHT22;40360;52.992;6.796;2023-09-07T02:44:52;16.80;99.90
54126;DHT22;40360;52.992;6.796;2023-09-07T02:47:19;16.70;99.90
54126;DHT22;40360;52.992;6.796;2023-09-07T02:49:44;16.70;99.90
54126;DHT22;40360;52.992;6.796;2023-09-07T02:52:10;16.70;99.90
54126;DHT22;40360;52.992;6.796;2023-09-07T02:54:35;16.80;99.90
54126;DHT22;40360;52.992;6.796;2023-09-07T02:57:01;16.70;99.90
54126;DHT22;40360;52.992;6.796;2023-09-07T02:59:27;16.70;99.90
54126;DHT22;40360;52.992;6.796;2023-09-07T03:01:52;16.70;99.90
54126;DHT22;40360;52.992;6.796;2023-09-07T03:04:18;16.80;99.90
54126;DHT22;40360;52.992;6.796;2023-09-07T03:06:43;16.80;99.90
54126;DHT22;40360;52.992;6.796;2023-09-07T03:09:09;16.80;99.90
54126;DHT22;40360;52.992;6.796;2023-09-07T03:11:35;16.80;99.90
54126;DHT22;40360;52.992;6.796;2023-09-07T03:14:01;16.80;99.90
54126;DHT22;40360;52.992;6.796;2023-09-07T03:16:26;16.80;99.90
54126;DHT22;40360;52.992;6.796;2023-09-07T03:18:52;16.70;99.90
54126;DHT22;40360;52.992;6.796;2023-09-07T03:21:18;16.70;99.90
54126;DHT22;40360;52.992;6.796;2023-09-07T03:23:43;16.70;99.90
54126;DHT22;40360;52.992;6.796;2023-09-07T03:26:10;16.70;99.90
54126;DHT22;40360;52.992;6.796;2023-09-07T03:28:36;16.60;99.90
54126;DHT22;40360;52.992;6.796;2023-09-07T03:31:02;16.60;99.90
54126;DHT22;40360;52.992;6.796;2023-09-07T03:33:27;16.60;99.90
54126;DHT22;40360;52.992;6.796;2023-09-07T03:35:53;16.50;99.90
54126;DHT22;40360;52.992;6.796;2023-09-07T03:38:24;16.50;99.90
54126;DHT22;40360;52.992;6.796;2023-09-07T03:40:49;16.40;99.90
54126;DHT22;40360;52.992;6.796;2023-09-07T03:43:15;16.40;99.90
54126;DHT22;40360;52.992;6.796;2023-09-07T03:45:41;16.40;99.90
54126;DHT22;40360;52.992;6.796;2023-09-07T03:48:06;16.30;99.90
54126;DHT22;40360;52.992;6.796;2023-09-07T03:50:33;16.40;99.90
54126;DHT22;40360;52.992;6.796;2023-09-07T03:53:01;16.30;99.90
54126;DHT22;40360;52.992;6.796;2023-09-07T03:55:27;16.30;99.90
54126;DHT22;40360;52.992;6.796;2023-09-07T03:57:53;16.40;99.90
54126;DHT22;40360;52.992;6.796;2023-09-07T04:00:18;16.30;99.90
54126;DHT22;40360;52.992;6.796;2023-09-07T04:02:45;16.30;99.90
54126;DHT22;40360;52.992;6.796;2023-09-07T04:05:10;16.30;99.90
54126;DHT22;40360;52.992;6.796;2023-09-07T04:07:37;16.30;99.90
54126;DHT22;40360;52.992;6.796;2023-09-07T04:10:04;16.30;99.90
54126;DHT22;40360;52.992;6.796;2023-09-07T04:12:30;16.20;99.90
54126;DHT22;40360;52.992;6.796;2023-09-07T04:14:56;16.20;99.90
54126;DHT22;40360;52.992;6.796;2023-09-07T04:17:23;16.20;99.90
54126;DHT22;40360;52.992;6.796;2023-09-07T04:19:49;16.20;99.90
54126;DHT22;40360;52.992;6.796;2023-09-07T04:22:14;16.20;99.90
54126;DHT22;40360;52.992;6.796;2023-09-07T04:24:40;16.20;99.90
54126;DHT22;40360;52.992;6.796;2023-09-07T04:27:06;16.20;99.90
54126;DHT22;40360;52.992;6.796;2023-09-07T04:29:32;16.20;99.90
54126;DHT22;40360;52.992;6.796;2023-09-07T04:31:58;16.20;99.90
54126;DHT22;40360;52.992;6.796;2023-09-07T04:34:23;16.10;99.90
54126;DHT22;40360;52.992;6.796;2023-09-07T04:36:49;16.10;99.90
54126;DHT22;40360;52.992;6.796;2023-09-07T04:39:14;16.10;99.90
54126;DHT22;40360;52.992;6.796;2023-09-07T04:41:41;16.10;99.90
54126;DHT22;40360;52.992;6.796;2023-09-07T04:44:06;16.10;99.90
54126;DHT22;40360;52.992;6.796;2023-09-07T04:46:32;16.10;99.90
54126;DHT22;40360;52.992;6.796;2023-09-07T04:48:58;16.10;99.90
54126;DHT22;40360;52.992;6.796;2023-09-07T04:51:23;16.00;99.90
54126;DHT22;40360;52.992;6.796;2023-09-07T04:53:51;16.00;99.90
54126;DHT22;40360;52.992;6.796;2023-09-07T04:56:17;16.00;99.90
54126;DHT22;40360;52.992;6.796;2023-09-07T04:58:42;15.90;99.90
54126;DHT22;40360;52.992;6.796;2023-09-07T05:01:10;16.00;99.90
54126;DHT22;40360;52.992;6.796;2023-09-07T05:03:37;16.00;99.90
54126;DHT22;40360;52.992;6.796;2023-09-07T05:06:04;15.90;99.90
54126;DHT22;40360;52.992;6.796;2023-09-07T05:08:30;15.90;99.90
54126;DHT22;40360;52.992;6.796;2023-09-07T05:11:00;15.90;99.90
54126;DHT22;40360;52.992;6.796;2023-09-07T05:13:27;15.90;99.90
54126;DHT22;40360;52.992;6.796;2023-09-07T05:15:53;15.90;99.90
54126;DHT22;40360;52.992;6.796;2023-09-07T05:18:20;16.00;99.90
54126;DHT22;40360;52.992;6.796;2023-09-07T05:20:47;15.90;99.90
54126;DHT22;40360;52.992;6.796;2023-09-07T05:23:17;15.90;99.90
54126;DHT22;40360;52.992;6.796;2023-09-07T05:25:49;15.90;99.90
54126;DHT22;40360;52.992;6.796;2023-09-07T05:28:17;15.90;99.90
54126;DHT22;40360;52.992;6.796;2023-09-07T05:30:43;15.90;99.90
54126;DHT22;40360;52.992;6.796;2023-09-07T05:33:10;16.00;99.90
54126;DHT22;40360;52.992;6.796;2023-09-07T05:35:36;16.00;99.90
54126;DHT22;40360;52.992;6.796;2023-09-07T05:38:03;16.00;99.90
54126;DHT22;40360;52.992;6.796;2023-09-07T05:40:29;16.10;99.90
54126;DHT22;40360;52.992;6.796;2023-09-07T05:42:58;16.10;99.90
54126;DHT22;40360;52.992;6.796;2023-09-07T06:02:05;16.40;99.90
54126;DHT22;40360;52.992;6.796;2023-09-07T06:04:31;16.40;99.90
54126;DHT22;40360;52.992;6.796;2023-09-07T06:06:56;16.40;99.90
54126;DHT22;40360;52.992;6.796;2023-09-07T06:09:22;16.50;99.90
54126;DHT22;40360;52.992;6.796;2023-09-07T06:11:47;16.50;99.90
54126;DHT22;40360;52.992;6.796;2023-09-07T06:14:13;16.70;99.90
54126;DHT22;40360;52.992;6.796;2023-09-07T06:16:39;16.60;99.90
54126;DHT22;40360;52.992;6.796;2023-09-07T06:19:05;16.70;99.90
54126;DHT22;40360;52.992;6.796;2023-09-07T06:21:32;16.70;99.90
54126;DHT22;40360;52.992;6.796;2023-09-07T06:23:57;16.80;99.90
54126;DHT22;40360;52.992;6.796;2023-09-07T06:26:23;16.90;99.90
54126;DHT22;40360;52.992;6.796;2023-09-07T06:28:48;16.90;99.90
54126;DHT22;40360;52.992;6.796;2023-09-07T06:31:14;16.90;99.90
54126;DHT22;40360;52.992;6.796;2023-09-07T06:33:39;17.10;99.90
54126;DHT22;40360;52.992;6.796;2023-09-07T06:36:05;17.20;99.90
54126;DHT22;40360;52.992;6.796;2023-09-07T06:38:31;17.20;99.90
54126;DHT22;40360;52.992;6.796;2023-09-07T06:40:57;17.30;99.90
54126;DHT22;40360;52.992;6.796;2023-09-07T06:43:22;17.40;99.90
54126;DHT22;40360;52.992;6.796;2023-09-07T06:45:48;17.50;99.90
54126;DHT22;40360;52.992;6.796;2023-09-07T06:48:14;17.60;99.90
54126;DHT22;40360;52.992;6.796;2023-09-07T06:50:39;17.60;99.90
54126;DHT22;40360;52.992;6.796;2023-09-07T06:53:05;17.70;99.90
54126;DHT22;40360;52.992;6.796;2023-09-07T06:55:30;17.80;99.90
54126;DHT22;40360;52.992;6.796;2023-09-07T06:57:56;18.00;99.90
54126;DHT22;40360;52.992;6.796;2023-09-07T07:00:22;18.10;99.90
54126;DHT22;40360;52.992;6.796;2023-09-07T07:02:48;18.30;99.90
54126;DHT22;40360;52.992;6.796;2023-09-07T07:05:13;18.30;99.90
54126;DHT22;40360;52.992;6.796;2023-09-07T07:07:39;18.50;99.90
54126;DHT22;40360;52.992;6.796;2023-09-07T07:10:06;18.70;99.90
54126;DHT22;40360;52.992;6.796;2023-09-07T07:12:32;18.80;99.90
54126;DHT22;40360;52.992;6.796;2023-09-07T07:15:01;18.90;99.90
54126;DHT22;40360;52.992;6.796;2023-09-07T07:17:27;19.00;99.90
54126;DHT22;40360;52.992;6.796;2023-09-07T07:19:53;19.20;99.90
54126;DHT22;40360;52.992;6.796;2023-09-07T07:22:18;19.30;99.90
54126;DHT22;40360;52.992;6.796;2023-09-07T07:24:45;19.40;99.90
54126;DHT22;40360;52.992;6.796;2023-09-07T07:27:11;19.50;99.90
54126;DHT22;40360;52.992;6.796;2023-09-07T07:29:36;19.60;99.90
54126;DHT22;40360;52.992;6.796;2023-09-07T07:32:03;19.70;99.90
54126;DHT22;40360;52.992;6.796;2023-09-07T07:34:29;19.80;99.90
54126;DHT22;40360;52.992;6.796;2023-09-07T07:36:55;19.90;99.90
54126;DHT22;40360;52.992;6.796;2023-09-07T07:39:20;20.10;99.90
54126;DHT22;40360;52.992;6.796;2023-09-07T07:41:46;20.20;99.90
54126;DHT22;40360;52.992;6.796;2023-09-07T07:44:12;20.30;99.90
54126;DHT22;40360;52.992;6.796;2023-09-07T07:46:37;20.40;99.90
54126;DHT22;40360;52.992;6.796;2023-09-07T07:49:03;20.50;99.90
54126;DHT22;40360;52.992;6.796;2023-09-07T07:51:29;20.60;99.90
54126;DHT22;40360;52.992;6.796;2023-09-07T07:53:55;20.80;99.90
54126;DHT22;40360;52.992;6.796;2023-09-07T07:56:22;20.80;99.90
54126;DHT22;40360;52.992;6.796;2023-09-07T07:58:48;20.90;99.90
54126;DHT22;40360;52.992;6.796;2023-09-07T08:01:19;21.10;99.90
54126;DHT22;40360;52.992;6.796;2023-09-07T08:03:48;21.20;99.90
54126;DHT22;40360;52.992;6.796;2023-09-07T08:06:14;21.30;99.90
54126;DHT22;40360;52.992;6.796;2023-09-07T08:08:40;21.50;99.90
54126;DHT22;40360;52.992;6.796;2023-09-07T08:11:05;21.50;99.90
54126;DHT22;40360;52.992;6.796;2023-09-07T08:13:32;21.60;99.90
54126;DHT22;40360;52.992;6.796;2023-09-07T08:16:00;21.80;99.90
54126;DHT22;40360;52.992;6.796;2023-09-07T08:18:26;21.90;99.90
54126;DHT22;40360;52.992;6.796;2023-09-07T08:20:52;22.00;99.90
54126;DHT22;40360;52.992;6.796;2023-09-07T08:23:19;22.10;99.90
54126;DHT22;40360;52.992;6.796;2023-09-07T08:25:44;22.20;99.90
54126;DHT22;40360;52.992;6.796;2023-09-07T08:28:12;22.30;99.90
54126;DHT22;40360;52.992;6.796;2023-09-07T08:30:38;22.40;99.90
54126;DHT22;40360;52.992;6.796;2023-09-07T08:33:04;22.50;99.90
54126;DHT22;40360;52.992;6.796;2023-09-07T08:35:30;22.60;99.90
54126;DHT22;40360;52.992;6.796;2023-09-07T08:38:01;22.70;99.90
54126;DHT22;40360;52.992;6.796;2023-09-07T08:40:29;22.80;99.90
54126;DHT22;40360;52.992;6.796;2023-09-07T08:42:55;22.80;99.90
54126;DHT22;40360;52.992;6.796;2023-09-07T08:45:22;23.00;99.90
54126;DHT22;40360;52.992;6.796;2023-09-07T08:47:49;23.00;99.90
54126;DHT22;40360;52.992;6.796;2023-09-07T08:50:15;23.10;99.90
54126;DHT22;40360;52.992;6.796;2023-09-07T08:52:43;23.20;99.90
54126;DHT22;40360;52.992;6.796;2023-09-07T08:55:12;23.30;99.90
54126;DHT22;40360;52.992;6.796;2023-09-07T08:57:37;23.40;99.90
54126;DHT22;40360;52.992;6.796;2023-09-07T09:00:03;23.50;99.90
54126;DHT22;40360;52.992;6.796;2023-09-07T09:02:34;23.60;99.90
54126;DHT22;40360;52.992;6.796;2023-09-07T09:05:02;23.80;99.90
54126;DHT22;40360;52.992;6.796;2023-09-07T09:07:30;23.90;99.90
54126;DHT22;40360;52.992;6.796;2023-09-07T09:10:06;24.00;99.90
54126;DHT22;40360;52.992;6.796;2023-09-07T09:12:32;24.10;99.90
54126;DHT22;40360;52.992;6.796;2023-09-07T09:14:59;24.10;99.90
54126;DHT22;40360;52.992;6.796;2023-09-07T09:17:26;24.20;99.90
54126;DHT22;40360;52.992;6.796;2023-09-07T09:19:51;24.40;99.90
54126;DHT22;40360;52.992;6.796;2023-09-07T09:22:17;24.40;99.90
54126;DHT22;40360;52.992;6.796;2023-09-07T09:24:42;24.60;99.90
54126;DHT22;40360;52.992;6.796;2023-09-07T09:27:08;24.80;99.90
54126;DHT22;40360;52.992;6.796;2023-09-07T09:29:37;24.80;99.90
54126;DHT22;40360;52.992;6.796;2023-09-07T09:32:03;24.90;99.90
54126;DHT22;40360;52.992;6.796;2023-09-07T09:34:37;25.00;99.90
54126;DHT22;40360;52.992;6.796;2023-09-07T09:37:03;25.10;99.90
54126;DHT22;40360;52.992;6.796;2023-09-07T09:39:30;25.20;99.90
54126;DHT22;40360;52.992;6.796;2023-09-07T09:41:56;25.30;99.90
54126;DHT22;40360;52.992;6.796;2023-09-07T09:44:23;25.40;99.90
54126;DHT22;40360;52.992;6.796;2023-09-07T09:46:53;25.50;99.90
54126;DHT22;40360;52.992;6.796;2023-09-07T09:49:21;25.60;99.90
54126;DHT22;40360;52.992;6.796;2023-09-07T09:51:49;25.70;99.90
54126;DHT22;40360;52.992;6.796;2023-09-07T09:54:17;25.80;99.90
54126;DHT22;40360;52.992;6.796;2023-09-07T09:56:43;25.80;99.90
54126;DHT22;40360;52.992;6.796;2023-09-07T09:59:11;25.90;99.90
54126;DHT22;40360;52.992;6.796;2023-09-07T10:01:44;26.10;99.90
54126;DHT22;40360;52.992;6.796;2023-09-07T10:04:12;26.20;99.90
54126;DHT22;40360;52.992;6.796;2023-09-07T10:06:39;26.20;99.90
54126;DHT22;40360;52.992;6.796;2023-09-07T10:09:06;26.30;99.90
54126;DHT22;40360;52.992;6.796;2023-09-07T10:11:34;26.40;99.90
54126;DHT22;40360;52.992;6.796;2023-09-07T10:14:01;26.50;99.90
54126;DHT22;40360;52.992;6.796;2023-09-07T10:16:51;26.60;99.90
54126;DHT22;40360;52.992;6.796;2023-09-07T10:19:18;26.70;99.90
54126;DHT22;40360;52.992;6.796;2023-09-07T10:21:44;26.80;99.90
54126;DHT22;40360;52.992;6.796;2023-09-07T10:24:10;26.90;99.90
54126;DHT22;40360;52.992;6.796;2023-09-07T10:26:36;27.00;99.90
54126;DHT22;40360;52.992;6.796;2023-09-07T10:29:02;27.10;99.90
54126;DHT22;40360;52.992;6.796;2023-09-07T10:31:29;27.20;99.90
54126;DHT22;40360;52.992;6.796;2023-09-07T10:34:10;27.30;99.90
54126;DHT22;40360;52.992;6.796;2023-09-07T10:36:37;27.40;99.90
54126;DHT22;40360;52.992;6.796;2023-09-07T10:39:03;27.50;99.90
54126;DHT22;40360;52.992;6.796;2023-09-07T10:41:45;27.60;99.90
54126;DHT22;40360;52.992;6.796;2023-09-07T10:44:11;27.70;99.90
54126;DHT22;40360;52.992;6.796;2023-09-07T10:46:39;27.80;99.90
54126;DHT22;40360;52.992;6.796;2023-09-07T10:49:07;27.90;99.90
54126;DHT22;40360;52.992;6.796;2023-09-07T10:51:45;28.00;99.90
54126;DHT22;40360;52.992;6.796;2023-09-07T10:54:18;28.00;99.90
54126;DHT22;40360;52.992;6.796;2023-09-07T10:56:45;28.00;99.90
54126;DHT22;40360;52.992;6.796;2023-09-07T10:59:16;28.10;99.90
54126;DHT22;40360;52.992;6.796;2023-09-07T11:01:43;28.10;99.90
54126;DHT22;40360;52.992;6.796;2023-09-07T11:04:09;28.20;99.90
54126;DHT22;40360;52.992;6.796;2023-09-07T11:06:37;28.30;99.90
54126;DHT22;40360;52.992;6.796;2023-09-07T11:09:04;28.40;99.90
54126;DHT22;40360;52.992;6.796;2023-09-07T11:11:31;28.50;99.90
54126;DHT22;40360;52.992;6.796;2023-09-07T11:13:58;28.60;99.90
54126;DHT22;40360;52.992;6.796;2023-09-07T11:16:25;28.70;99.90
54126;DHT22;40360;52.992;6.796;2023-09-07T11:18:51;28.80;99.90
54126;DHT22;40360;52.992;6.796;2023-09-07T11:21:17;28.90;99.90
54126;DHT22;40360;52.992;6.796;2023-09-07T11:23:45;29.00;99.90
54126;DHT22;40360;52.992;6.796;2023-09-07T11:26:10;29.10;99.90
54126;DHT22;40360;52.992;6.796;2023-09-07T11:28:37;29.20;99.90
54126;DHT22;40360;52.992;6.796;2023-09-07T11:31:03;29.40;99.90
54126;DHT22;40360;52.992;6.796;2023-09-07T11:33:32;29.40;99.90
54126;DHT22;40360;52.992;6.796;2023-09-07T11:35:57;29.50;99.90
54126;DHT22;40360;52.992;6.796;2023-09-07T11:38:29;29.60;99.90
54126;DHT22;40360;52.992;6.796;2023-09-07T11:40:56;29.70;99.90
54126;DHT22;40360;52.992;6.796;2023-09-07T11:43:21;29.80;99.90
54126;DHT22;40360;52.992;6.796;2023-09-07T11:45:48;29.80;99.90
54126;DHT22;40360;52.992;6.796;2023-09-07T11:48:14;29.90;99.90
54126;DHT22;40360;52.992;6.796;2023-09-07T11:50:40;30.00;99.90
54126;DHT22;40360;52.992;6.796;2023-09-07T11:53:06;30.00;99.90
54126;DHT22;40360;52.992;6.796;2023-09-07T11:55:33;30.00;99.90
54126;DHT22;40360;52.992;6.796;2023-09-07T11:58:00;30.10;99.80
54126;DHT22;40360;52.992;6.796;2023-09-07T12:00:25;30.10;99.60
54126;DHT22;40360;52.992;6.796;2023-09-07T12:02:52;30.20;99.30
54126;DHT22;40360;52.992;6.796;2023-09-07T12:05:17;30.30;99.40
54126;DHT22;40360;52.992;6.796;2023-09-07T12:07:45;30.30;98.70
54126;DHT22;40360;52.992;6.796;2023-09-07T12:10:11;30.30;98.90
54126;DHT22;40360;52.992;6.796;2023-09-07T12:12:39;30.40;99.90
54126;DHT22;40360;52.992;6.796;2023-09-07T12:15:05;30.50;99.90
54126;DHT22;40360;52.992;6.796;2023-09-07T12:17:32;30.60;99.80
54126;DHT22;40360;52.992;6.796;2023-09-07T12:19:58;30.70;99.60
54126;DHT22;40360;52.992;6.796;2023-09-07T12:22:23;30.70;99.20
54126;DHT22;40360;52.992;6.796;2023-09-07T12:24:49;30.80;99.50
54126;DHT22;40360;52.992;6.796;2023-09-07T12:27:15;30.80;98.80
54126;DHT22;40360;52.992;6.796;2023-09-07T12:29:41;30.70;97.70
54126;DHT22;40360;52.992;6.796;2023-09-07T12:32:07;30.70;98.70
54126;DHT22;40360;52.992;6.796;2023-09-07T12:34:33;30.60;98.80
54126;DHT22;40360;52.992;6.796;2023-09-07T12:36:58;30.70;99.50
54126;DHT22;40360;52.992;6.796;2023-09-07T12:39:24;30.70;99.00
54126;DHT22;40360;52.992;6.796;2023-09-07T12:41:50;30.80;99.20
54126;DHT22;40360;52.992;6.796;2023-09-07T12:44:15;31.00;99.30
54126;DHT22;40360;52.992;6.796;2023-09-07T12:46:43;31.00;99.20
54126;DHT22;40360;52.992;6.796;2023-09-07T12:49:09;31.10;99.60
54126;DHT22;40360;52.992;6.796;2023-09-07T12:51:35;31.20;99.40
54126;DHT22;40360;52.992;6.796;2023-09-07T12:54:01;31.20;99.10
54126;DHT22;40360;52.992;6.796;2023-09-07T12:56:26;31.10;98.70
54126;DHT22;40360;52.992;6.796;2023-09-07T12:58:53;31.00;98.60
54126;DHT22;40360;52.992;6.796;2023-09-07T13:01:18;30.90;98.50
54126;DHT22;40360;52.992;6.796;2023-09-07T13:03:44;30.90;98.60
54126;DHT22;40360;52.992;6.796;2023-09-07T13:06:10;30.90;98.60
54126;DHT22;40360;52.992;6.796;2023-09-07T13:08:36;30.90;98.60
54126;DHT22;40360;52.992;6.796;2023-09-07T13:11:01;30.90;99.20
54126;DHT22;40360;52.992;6.796;2023-09-07T13:13:27;31.00;99.10
54126;DHT22;40360;52.992;6.796;2023-09-07T13:15:57;31.00;99.00
54126;DHT22;40360;52.992;6.796;2023-09-07T13:18:24;31.00;99.40
54126;DHT22;40360;52.992;6.796;2023-09-07T13:20:50;31.10;99.00
54126;DHT22;40360;52.992;6.796;2023-09-07T13:23:17;31.00;98.70
54126;DHT22;40360;52.992;6.796;2023-09-07T13:25:43;31.10;98.80
54126;DHT22;40360;52.992;6.796;2023-09-07T13:28:09;31.00;98.30
54126;DHT22;40360;52.992;6.796;2023-09-07T13:30:34;30.90;98.00
54126;DHT22;40360;52.992;6.796;2023-09-07T13:33:00;30.90;98.10
54126;DHT22;40360;52.992;6.796;2023-09-07T13:35:26;30.90;98.10
54126;DHT22;40360;52.992;6.796;2023-09-07T13:37:52;30.90;98.40
54126;DHT22;40360;52.992;6.796;2023-09-07T13:40:18;30.80;98.20
54126;DHT22;40360;52.992;6.796;2023-09-07T13:42:45;30.80;97.80
54126;DHT22;40360;52.992;6.796;2023-09-07T13:45:11;30.80;98.00
54126;DHT22;40360;52.992;6.796;2023-09-07T13:47:37;30.90;98.20
54126;DHT22;40360;52.992;6.796;2023-09-07T13:50:03;30.80;98.30
54126;DHT22;40360;52.992;6.796;2023-09-07T13:52:29;30.80;98.50
54126;DHT22;40360;52.992;6.796;2023-09-07T13:54:55;30.90;98.60
54126;DHT22;40360;52.992;6.796;2023-09-07T13:57:20;30.80;97.80
54126;DHT22;40360;52.992;6.796;2023-09-07T13:59:46;30.90;97.90
54126;DHT22;40360;52.992;6.796;2023-09-07T14:02:12;30.90;98.30
54126;DHT22;40360;52.992;6.796;2023-09-07T14:04:37;31.10;98.10
54126;DHT22;40360;52.992;6.796;2023-09-07T14:07:03;31.00;98.20
54126;DHT22;40360;52.992;6.796;2023-09-07T14:09:29;30.80;97.50
54126;DHT22;40360;52.992;6.796;2023-09-07T14:11:54;30.60;97.50
54126;DHT22;40360;52.992;6.796;2023-09-07T14:14:20;30.40;97.60
54126;DHT22;40360;52.992;6.796;2023-09-07T14:16:46;30.20;97.80
54126;DHT22;40360;52.992;6.796;2023-09-07T14:19:12;30.00;98.40
54126;DHT22;40360;52.992;6.796;2023-09-07T14:21:38;29.80;98.60
54126;DHT22;40360;52.992;6.796;2023-09-07T14:24:03;29.60;98.10
54126;DHT22;40360;52.992;6.796;2023-09-07T14:26:29;29.50;98.20
54126;DHT22;40360;52.992;6.796;2023-09-07T14:28:55;29.30;98.40
54126;DHT22;40360;52.992;6.796;2023-09-07T14:31:20;29.20;99.00
54126;DHT22;40360;52.992;6.796;2023-09-07T14:33:46;29.00;99.30
54126;DHT22;40360;52.992;6.796;2023-09-07T14:36:12;28.90;99.10
54126;DHT22;40360;52.992;6.796;2023-09-07T14:38:37;28.80;99.60
54126;DHT22;40360;52.992;6.796;2023-09-07T14:41:07;28.70;99.10
54126;DHT22;40360;52.992;6.796;2023-09-07T14:43:36;28.60;99.00
54126;DHT22;40360;52.992;6.796;2023-09-07T14:46:02;28.50;98.90
54126;DHT22;40360;52.992;6.796;2023-09-07T14:48:27;28.50;99.20
54126;DHT22;40360;52.992;6.796;2023-09-07T14:50:53;28.40;99.10
54126;DHT22;40360;52.992;6.796;2023-09-07T14:53:19;28.30;99.10
54126;DHT22;40360;52.992;6.796;2023-09-07T14:55:44;28.30;99.20
54126;DHT22;40360;52.992;6.796;2023-09-07T14:58:10;28.20;99.70
54126;DHT22;40360;52.992;6.796;2023-09-07T15:00:36;27.90;99.90
54126;DHT22;40360;52.992;6.796;2023-09-07T15:03:02;28.10;99.90
54126;DHT22;40360;52.992;6.796;2023-09-07T15:05:27;28.10;99.90
54126;DHT22;40360;52.992;6.796;2023-09-07T15:07:54;28.00;99.80
54126;DHT22;40360;52.992;6.796;2023-09-07T15:10:19;27.90;99.90
54126;DHT22;40360;52.992;6.796;2023-09-07T15:12:45;27.90;99.90
54126;DHT22;40360;52.992;6.796;2023-09-07T15:15:11;27.90;99.90
54126;DHT22;40360;52.992;6.796;2023-09-07T15:17:43;27.80;99.90
54126;DHT22;40360;52.992;6.796;2023-09-07T15:20:09;27.80;99.90
54126;DHT22;40360;52.992;6.796;2023-09-07T15:22:35;27.80;99.90
54126;DHT22;40360;52.992;6.796;2023-09-07T15:25:00;27.70;99.90
54126;DHT22;40360;52.992;6.796;2023-09-07T15:27:26;27.70;99.90
54126;DHT22;40360;52.992;6.796;2023-09-07T15:29:52;27.70;99.90
54126;DHT22;40360;52.992;6.796;2023-09-07T15:32:19;27.60;99.90
54126;DHT22;40360;52.992;6.796;2023-09-07T15:34:44;27.60;99.90
54126;DHT22;40360;52.992;6.796;2023-09-07T15:37:10;27.50;99.90
54126;DHT22;40360;52.992;6.796;2023-09-07T15:39:36;27.50;99.90
54126;DHT22;40360;52.992;6.796;2023-09-07T15:42:01;27.50;99.90